KJRB/JRB METAR and TAF weather

Enter ICAO airport designator
Station Type Date Time Source
KJRB METAR 2020/12/05 04:56 UTC NOAA

KJRB 050456Z AUTO 00000KT 10SM -RA BKN043 OVC055 08/06 A2990 RMK AO2 SLP126 P0000 T00830061 401060072


Station Type Date Time Source
KJRB Decoded METAR 2020/12/05 04:56 UTC NOAA

Station name not available
Dec 04, 2020 - 11:56 PM EST / 2020.12.05 0456 UTC
Wind: Calm:0
Visibility: 10 mile(s):0
Sky conditions: overcast
Weather: light rain
Precipitation last hour: A trace
Temperature: 46.9 F (8.3 C)
Dew Point: 43.0 F (6.1 C)
Relative Humidity: 86%
Pressure (altimeter): 29.9 in. Hg (1012 hPa)
ob: KJRB 050456Z AUTO 00000KT 10SM -RA BKN043 OVC055 08/06 A2990 RMK AO2 SLP126 P0000 T00830061 401060072
cycle: 5

Station Type Date Time Source
KJRB TAF UTC NOAA

Error!

Example: see airport list